Time;durP1;ratioP1;P1;durP2;ratioP2;P2;SDS_P1;SDS_P2;PMS_P1;PMS_P2;Temp;Humidity;BMP_temperature;BMP_pressure;BME280_temperature;BME280_humidity;BME280_pressure;Samples;Min_cycle;Max_cycle;Signal;HPM_P1;HPM_P2
2022/12/03 00:01:55;;;;;;;21.10;12.27;;;2.90;99.90;;;;;;5088148;28;20452;-48
2022/12/03 00:04:21;;;;;;;17.33;11.80;;;3.00;99.90;;;;;;5091051;28;20527;-47
2022/12/03 00:06:48;;;;;;;16.33;13.03;;;3.00;99.90;;;;;;5090950;28;20945;-47
2022/12/03 00:09:15;;;;;;;17.60;12.03;;;3.10;99.90;;;;;;5091416;28;20637;-47
2022/12/03 00:11:42;;;;;;;15.00;11.33;;;3.00;99.90;;;;;;5090633;28;21047;-47
2022/12/03 00:14:10;;;;;;;18.93;11.90;;;2.60;99.90;;;;;;5090874;28;20790;-47
2022/12/03 00:16:37;;;;;;;16.07;11.47;;;2.70;99.90;;;;;;5090907;28;20482;-47
2022/12/03 00:19:06;;;;;;;17.03;12.43;;;2.90;99.90;;;;;;5090902;28;20436;-47
2022/12/03 00:21:33;;;;;;;16.83;11.90;;;3.00;99.90;;;;;;5090774;28;20464;-47
2022/12/03 00:23:59;;;;;;;19.17;11.83;;;3.10;99.90;;;;;;5089773;28;20937;-47
2022/12/03 00:26:26;;;;;;;16.30;11.87;;;3.10;99.90;;;;;;5090408;28;20525;-46
2022/12/03 00:28:54;;;;;;;23.00;13.87;;;2.90;99.90;;;;;;5091432;28;20957;-47
2022/12/03 00:31:22;;;;;;;16.67;12.07;;;2.50;99.90;;;;;;5091233;28;20486;-48
2022/12/03 00:33:49;;;;;;;16.23;10.50;;;2.40;99.90;;;;;;5090088;28;21107;-47
2022/12/03 00:36:15;;;;;;;14.27;11.20;;;2.40;99.90;;;;;;5090434;28;20523;-47
2022/12/03 00:38:42;;;;;;;17.17;11.50;;;2.50;99.90;;;;;;5090511;28;21011;-49
2022/12/03 00:41:09;;;;;;;16.00;11.63;;;2.70;99.90;;;;;;5090879;28;20562;-47
2022/12/03 00:43:36;;;;;;;17.10;11.30;;;2.60;99.90;;;;;;5090887;28;20529;-47
2022/12/03 00:46:03;;;;;;;17.80;11.80;;;2.70;99.90;;;;;;5091177;28;20448;-47
2022/12/03 00:48:31;;;;;;;16.10;11.83;;;2.90;99.90;;;;;;5091234;28;20906;-50
2022/12/03 00:50:58;;;;;;;14.73;11.47;;;2.70;99.90;;;;;;5090926;28;20482;-50
2022/12/03 00:53:25;;;;;;;14.40;11.00;;;2.70;99.90;;;;;;5078681;28;20527;-48
2022/12/03 00:55:51;;;;;;;13.53;10.67;;;2.70;99.90;;;;;;5090805;28;21004;-47
2022/12/03 00:58:18;;;;;;;12.03;9.40;;;3.00;99.90;;;;;;5090722;28;20450;-51
2022/12/03 01:00:45;;;;;;;16.70;12.30;;;3.00;99.90;;;;;;5090566;28;20531;-47
2022/12/03 01:03:12;;;;;;;14.93;10.53;;;3.20;99.90;;;;;;5090366;28;20651;-47
2022/12/03 01:05:40;;;;;;;13.40;10.07;;;3.10;99.90;;;;;;5090367;28;20535;-49
2022/12/03 01:08:07;;;;;;;17.47;11.27;;;3.20;99.90;;;;;;5091002;28;20436;-49
2022/12/03 01:10:34;;;;;;;13.53;9.63;;;3.00;99.90;;;;;;5090326;28;20988;-47
2022/12/03 01:13:01;;;;;;;14.93;11.00;;;3.00;99.90;;;;;;5090295;28;20446;-47
2022/12/03 01:15:28;;;;;;;14.40;9.70;;;3.10;99.90;;;;;;5090580;28;20972;-48
2022/12/03 01:17:54;;;;;;;16.70;11.07;;;3.20;99.90;;;;;;5090988;28;20933;-47
2022/12/03 01:20:21;;;;;;;16.27;11.60;;;3.20;99.90;;;;;;5090422;28;20453;-47
2022/12/03 01:22:50;;;;;;;14.13;8.80;;;3.30;99.90;;;;;;5092999;28;20470;-47
2022/12/03 01:25:17;;;;;;;14.17;9.53;;;3.10;99.90;;;;;;5093967;28;20528;-47
2022/12/03 01:27:44;;;;;;;14.37;10.47;;;3.20;99.90;;;;;;5094261;28;20447;-48
2022/12/03 01:30:12;;;;;;;15.03;10.73;;;3.10;99.90;;;;;;5094056;28;20437;-48
2022/12/03 01:32:38;;;;;;;14.57;9.53;;;2.90;99.90;;;;;;5093424;28;20563;-48
2022/12/03 01:35:05;;;;;;;13.30;9.40;;;2.80;99.90;;;;;;5093812;28;20523;-47
2022/12/03 01:37:32;;;;;;;11.80;10.20;;;3.00;99.90;;;;;;5093810;28;20281;-47
2022/12/03 01:40:00;;;;;;;14.50;9.80;;;3.10;99.90;;;;;;5094306;28;21035;-50
2022/12/03 01:42:30;;;;;;;10.70;9.60;;;3.10;99.90;;;;;;5093084;28;20472;-47
2022/12/03 01:44:58;;;;;;;14.70;10.80;;;2.80;99.90;;;;;;5094045;28;20462;-47
2022/12/03 01:47:28;;;;;;;16.00;9.97;;;2.60;99.90;;;;;;5094415;28;20535;-47
2022/12/03 01:49:59;;;;;;;12.73;9.97;;;2.70;99.90;;;;;;5074348;28;20528;-47
2022/12/03 01:52:30;;;;;;;12.77;9.27;;;2.60;99.90;;;;;;5092295;28;21072;-48
2022/12/03 01:55:02;;;;;;;18.00;10.50;;;2.50;99.90;;;;;;5093614;28;20527;-47
2022/12/03 01:57:34;;;;;;;15.33;9.97;;;2.50;99.90;;;;;;5093482;28;20446;-48
2022/12/03 02:00:01;;;;;;;14.10;10.10;;;2.70;99.90;;;;;;5093804;28;20541;-47
2022/12/03 02:02:30;;;;;;;12.97;9.63;;;2.90;99.90;;;;;;5093522;28;20544;-47
2022/12/03 02:04:58;;;;;;;15.80;11.20;;;2.80;99.90;;;;;;5093345;28;20439;-47
2022/12/03 02:07:27;;;;;;;13.23;10.43;;;3.00;99.90;;;;;;5094261;28;20527;-48
2022/12/03 02:09:57;;;;;;;15.90;10.00;;;3.00;99.90;;;;;;5093207;28;20892;-47
2022/12/03 02:12:29;;;;;;;15.07;8.90;;;3.00;99.90;;;;;;5093689;28;20472;-47
2022/12/03 02:14:57;;;;;;;12.90;10.50;;;3.10;99.90;;;;;;5093265;28;20531;-47
2022/12/03 02:17:24;;;;;;;12.63;9.20;;;3.00;99.90;;;;;;5093442;28;20436;-47
2022/12/03 02:19:52;;;;;;;17.50;10.93;;;2.80;99.90;;;;;;5092977;28;20447;-47
2022/12/03 02:22:28;;;;;;;13.23;9.10;;;2.70;99.90;;;;;;5092959;28;20540;-48
2022/12/03 02:25:04;;;;;;;12.97;7.70;;;2.90;99.90;;;;;;5093390;28;20498;-47
2022/12/03 02:27:31;;;;;;;13.70;8.77;;;2.90;99.90;;;;;;5093092;28;20440;-47
2022/12/03 02:29:58;;;;;;;12.93;8.40;;;2.40;99.90;;;;;;5092672;28;20519;-50
2022/12/03 02:32:25;;;;;;;9.90;7.70;;;2.20;99.90;;;;;;5093958;28;21050;-46
2022/12/03 02:34:52;;;;;;;12.83;9.13;;;2.00;99.90;;;;;;5082096;28;20539;-47
2022/12/03 02:37:24;;;;;;;11.37;7.80;;;2.00;99.90;;;;;;5092748;28;20447;-48
2022/12/03 02:39:54;;;;;;;12.87;8.03;;;2.30;99.90;;;;;;5092552;28;21024;-47
2022/12/03 02:42:35;;;;;;;13.70;8.93;;;2.30;99.90;;;;;;5092989;28;21047;-44
2022/12/03 02:45:07;;;;;;;16.27;9.17;;;2.50;99.90;;;;;;5091737;28;20531;-44
2022/12/03 02:47:39;;;;;;;13.70;9.40;;;2.80;99.90;;;;;;5093227;28;20535;-49
2022/12/03 02:50:07;;;;;;;11.40;8.67;;;2.80;99.90;;;;;;5092946;28;20891;-49
2022/12/03 02:52:34;;;;;;;12.30;8.27;;;2.90;99.90;;;;;;5092874;28;20483;-51
2022/12/03 02:55:04;;;;;;;14.00;8.70;;;2.50;99.90;;;;;;5090619;28;20948;-47
2022/12/03 02:57:33;;;;;;;14.33;8.70;;;2.20;99.90;;;;;;5092354;28;20447;-47
2022/12/03 02:59:59;;;;;;;10.50;7.50;;;2.10;99.90;;;;;;5092097;28;20440;-47
2022/12/03 03:02:27;;;;;;;8.97;7.80;;;1.90;99.90;;;;;;5092530;28;20544;-48
2022/12/03 03:04:54;;;;;;;11.07;9.90;;;1.90;99.90;;;;;;5092379;28;20880;-47
2022/12/03 03:07:21;;;;;;;13.80;7.73;;;2.10;99.90;;;;;;5092466;28;20527;-48
2022/12/03 03:09:48;;;;;;;12.10;7.80;;;2.30;99.90;;;;;;5091865;28;20535;-47
2022/12/03 03:12:15;;;;;;;11.10;8.07;;;2.40;99.90;;;;;;5092584;28;20482;-46
2022/12/03 03:14:43;;;;;;;15.67;9.10;;;2.50;99.90;;;;;;5091629;28;20536;-46
2022/12/03 03:17:10;;;;;;;13.87;9.60;;;2.50;99.90;;;;;;5092076;28;20450;-47
2022/12/03 03:19:37;;;;;;;12.13;9.10;;;2.70;99.90;;;;;;5092175;28;20944;-47
2022/12/03 03:22:04;;;;;;;15.90;9.37;;;2.80;99.90;;;;;;5092261;28;20543;-47
2022/12/03 03:24:31;;;;;;;10.63;8.10;;;3.00;99.90;;;;;;5090976;28;20531;-47
2022/12/03 03:26:58;;;;;;;13.97;9.43;;;3.00;99.90;;;;;;5092147;28;20535;-47
2022/12/03 03:29:25;;;;;;;13.90;9.13;;;2.90;99.90;;;;;;5091525;28;20439;-47
2022/12/03 03:31:53;;;;;;;9.53;7.33;;;3.00;99.90;;;;;;5091104;28;21099;-49
2022/12/03 03:34:20;;;;;;;11.60;8.77;;;3.00;99.90;;;;;;5090386;28;20553;-49
2022/12/03 03:36:47;;;;;;;14.80;9.20;;;2.90;99.90;;;;;;5092160;28;20539;-47
2022/12/03 03:39:14;;;;;;;10.40;8.13;;;2.90;99.90;;;;;;5091583;28;20531;-47
2022/12/03 03:41:42;;;;;;;11.40;8.23;;;3.00;99.90;;;;;;5090876;28;20551;-48
2022/12/03 03:44:10;;;;;;;13.90;8.13;;;3.10;99.90;;;;;;5091789;28;20547;-49
2022/12/03 03:46:37;;;;;;;13.10;9.20;;;3.20;99.90;;;;;;5090794;28;20536;-47
2022/12/03 03:49:06;;;;;;;10.93;8.93;;;3.10;99.90;;;;;;5091306;28;20468;-47
2022/12/03 03:51:35;;;;;;;13.87;8.80;;;3.10;99.90;;;;;;5091599;28;20999;-47
2022/12/03 03:54:03;;;;;;;14.23;9.33;;;3.10;99.90;;;;;;5090656;28;20542;-48
2022/12/03 03:56:32;;;;;;;13.00;8.93;;;3.10;99.90;;;;;;5091234;28;20535;-47
2022/12/03 03:58:59;;;;;;;12.00;8.80;;;3.10;99.90;;;;;;5091858;28;20965;-47
2022/12/03 04:01:27;;;;;;;12.57;8.27;;;3.10;99.90;;;;;;5091370;28;20539;-50
2022/12/03 04:03:54;;;;;;;11.60;8.90;;;3.10;99.90;;;;;;5090520;28;20949;-49
2022/12/03 04:06:22;;;;;;;9.47;7.43;;;3.20;99.90;;;;;;5091998;28;20448;-47
2022/12/03 04:08:49;;;;;;;13.23;8.57;;;2.60;99.90;;;;;;5091529;28;20442;-47
2022/12/03 04:14:01;;;;;;;11.43;7.60;;;2.50;99.90;;;;;;5090751;28;20951;-47
2022/12/03 04:16:27;;;;;;;9.87;8.07;;;2.40;99.90;;;;;;5090399;28;20535;-47
2022/12/03 04:18:54;;;;;;;10.20;8.20;;;2.30;99.90;;;;;;5090782;28;20531;-47
2022/12/03 04:24:11;;;;;;;11.93;7.80;;;2.50;99.90;;;;;;5090400;28;20517;-47
2022/12/03 04:29:23;;;;;;;10.20;7.57;;;2.30;99.90;;;;;;5091155;28;20509;-46
2022/12/03 04:37:19;;;;;;;10.20;7.83;;;2.50;99.90;;;;;;5090290;28;20434;-47
2022/12/03 04:39:46;;;;;;;11.80;8.17;;;2.20;99.90;;;;;;5089893;28;20464;-47
2022/12/03 04:42:13;;;;;;;10.20;7.80;;;2.20;99.90;;;;;;5091244;28;20896;-47
2022/12/03 04:44:40;;;;;;;13.30;8.00;;;2.20;99.90;;;;;;5090299;28;20444;-47
2022/12/03 04:47:09;;;;;;;10.60;8.17;;;2.10;99.90;;;;;;5089882;28;20535;-50
2022/12/03 04:49:38;;;;;;;13.43;8.33;;;2.10;99.90;;;;;;5090847;28;20444;-47
2022/12/03 04:52:05;;;;;;;11.87;8.43;;;2.10;99.90;;;;;;5091050;28;20472;-48
2022/12/03 04:54:34;;;;;;;15.13;10.33;;;2.10;99.90;;;;;;5089579;28;20448;-47
2022/12/03 04:57:01;;;;;;;15.17;8.30;;;2.30;99.90;;;;;;5092067;28;20461;-48
2022/12/03 04:59:28;;;;;;;10.83;9.00;;;1.90;99.90;;;;;;5095212;28;20444;-47
2022/12/03 05:01:55;;;;;;;15.10;8.53;;;1.70;99.90;;;;;;5095046;28;20451;-47
2022/12/03 05:04:22;;;;;;;11.27;7.17;;;1.50;99.90;;;;;;5094294;28;20444;-47
2022/12/03 05:06:49;;;;;;;10.40;7.43;;;1.50;99.90;;;;;;5094187;28;20446;-47
2022/12/03 05:09:16;;;;;;;11.37;8.07;;;1.40;99.90;;;;;;5094767;28;20450;-46
2022/12/03 05:11:44;;;;;;;10.70;6.83;;;1.40;99.90;;;;;;5093863;28;20562;-47
2022/12/03 05:14:12;;;;;;;9.47;7.43;;;1.40;99.90;;;;;;5093967;28;20444;-47
2022/12/03 05:16:39;;;;;;;9.13;7.10;;;1.60;99.90;;;;;;5094666;28;20444;-50
2022/12/03 05:19:07;;;;;;;9.67;7.47;;;1.60;99.90;;;;;;5094098;28;20435;-48
2022/12/03 05:21:34;;;;;;;10.50;7.57;;;1.60;99.90;;;;;;5094789;28;20466;-47
2022/12/03 05:24:01;;;;;;;9.93;7.30;;;1.60;99.90;;;;;;5093586;28;20538;-50
2022/12/03 05:26:28;;;;;;;10.87;8.97;;;1.80;99.90;;;;;;5094164;28;20526;-47
2022/12/03 05:28:56;;;;;;;9.07;6.93;;;1.90;99.90;;;;;;5094609;28;20534;-47
2022/12/03 05:31:23;;;;;;;11.00;7.57;;;2.00;99.90;;;;;;5094620;28;20474;-47
2022/12/03 05:33:50;;;;;;;11.07;8.07;;;2.20;99.90;;;;;;5093557;28;20541;-50
2022/12/03 05:36:17;;;;;;;10.67;6.70;;;2.00;99.90;;;;;;5094196;28;20446;-47
2022/12/03 05:38:44;;;;;;;12.00;8.20;;;2.10;99.90;;;;;;5093855;28;20444;-46
2022/12/03 05:43:56;;;;;;;8.87;6.83;;;2.30;99.90;;;;;;5083758;28;20477;-47
2022/12/03 05:46:23;;;;;;;11.40;7.87;;;2.40;99.90;;;;;;5093828;28;20814;-48
2022/12/03 05:48:50;;;;;;;12.03;7.97;;;2.30;99.90;;;;;;5093808;28;20527;-48
2022/12/03 05:51:16;;;;;;;14.90;8.63;;;2.50;99.90;;;;;;5093832;28;20546;-47
2022/12/03 05:53:43;;;;;;;11.20;8.90;;;2.40;99.90;;;;;;5093327;28;20558;-47
2022/12/03 05:56:10;;;;;;;12.00;8.67;;;2.50;99.90;;;;;;5093350;28;20441;-48
2022/12/03 05:58:37;;;;;;;11.20;7.77;;;2.40;99.90;;;;;;5093657;28;20449;-47
2022/12/03 06:01:05;;;;;;;10.43;7.43;;;2.30;99.90;;;;;;5093754;28;20994;-47
2022/12/03 06:03:32;;;;;;;10.10;7.70;;;2.50;99.90;;;;;;5093441;28;20526;-47
2022/12/03 06:05:59;;;;;;;10.17;7.70;;;2.60;99.90;;;;;;5094198;28;20440;-46
2022/12/03 06:08:26;;;;;;;12.00;7.90;;;2.30;99.90;;;;;;5092867;28;20992;-49
2022/12/03 06:10:53;;;;;;;10.03;8.07;;;2.20;99.90;;;;;;5092708;28;20447;-47
2022/12/03 06:13:19;;;;;;;8.93;6.83;;;2.30;99.90;;;;;;5093583;28;20471;-47
2022/12/03 06:15:46;;;;;;;10.03;6.90;;;2.30;99.90;;;;;;5093773;28;20444;-48
2022/12/03 06:18:14;;;;;;;13.77;7.40;;;2.20;99.90;;;;;;5093588;28;20527;-47
2022/12/03 06:20:41;;;;;;;12.93;7.70;;;2.10;99.90;;;;;;5092959;28;20531;-46
2022/12/03 06:23:08;;;;;;;9.97;7.43;;;2.40;99.90;;;;;;5092918;28;20518;-46
2022/12/03 06:25:35;;;;;;;11.00;7.90;;;2.20;99.90;;;;;;5093350;28;20445;-48
2022/12/03 06:28:02;;;;;;;11.10;7.87;;;2.30;99.90;;;;;;5093761;28;20526;-47
2022/12/03 06:30:29;;;;;;;10.00;7.90;;;2.50;99.90;;;;;;5092821;28;20437;-48
2022/12/03 06:32:55;;;;;;;11.20;8.10;;;2.50;99.90;;;;;;5091561;28;20471;-51
2022/12/03 06:35:24;;;;;;;10.83;8.10;;;2.60;99.90;;;;;;5093077;28;20821;-47
2022/12/03 06:37:50;;;;;;;12.33;10.63;;;2.60;99.90;;;;;;5093144;28;20986;-47
2022/12/03 06:40:18;;;;;;;7.90;7.10;;;2.50;99.90;;;;;;5093167;28;20485;-48
2022/12/03 06:42:45;;;;;;;9.97;8.10;;;2.60;99.90;;;;;;5092758;28;20541;-48
2022/12/03 06:45:12;;;;;;;10.40;7.77;;;2.40;99.90;;;;;;5092440;28;20444;-47
2022/12/03 06:47:39;;;;;;;11.17;8.87;;;2.50;99.90;;;;;;5093297;28;20440;-47
2022/12/03 06:50:07;;;;;;;15.30;10.60;;;2.20;99.90;;;;;;5092384;28;20937;-46
2022/12/03 06:52:36;;;;;;;14.70;10.40;;;2.20;99.90;;;;;;5092287;28;21008;-49
2022/12/03 06:55:03;;;;;;;13.47;9.70;;;2.20;99.90;;;;;;5092523;28;20534;-50
2022/12/03 06:57:30;;;;;;;15.30;9.73;;;2.20;99.90;;;;;;5092589;28;20866;-47
2022/12/03 06:59:57;;;;;;;11.73;8.67;;;2.40;99.90;;;;;;5092720;28;20523;-47
2022/12/03 07:02:23;;;;;;;14.07;9.40;;;2.40;99.90;;;;;;5091480;28;20903;-47
2022/12/03 07:04:50;;;;;;;11.10;8.63;;;2.50;99.90;;;;;;5092334;28;20436;-47
2022/12/03 07:07:17;;;;;;;14.00;8.80;;;2.40;99.90;;;;;;5092820;28;20462;-47
2022/12/03 07:09:45;;;;;;;13.53;8.83;;;2.50;99.90;;;;;;5091832;28;20933;-47
2022/12/03 07:12:12;;;;;;;11.03;8.27;;;2.50;99.90;;;;;;5081639;28;20478;-47
2022/12/03 07:14:39;;;;;;;11.70;9.57;;;2.60;99.90;;;;;;5092130;28;20440;-47
2022/12/03 07:17:06;;;;;;;11.20;8.40;;;2.50;99.90;;;;;;5092778;28;20534;-50
2022/12/03 07:19:33;;;;;;;11.23;9.07;;;2.50;99.90;;;;;;5092324;28;20444;-47
2022/12/03 07:22:00;;;;;;;10.53;7.60;;;2.60;99.90;;;;;;5091644;28;20827;-47
2022/12/03 07:24:27;;;;;;;12.03;8.50;;;2.70;99.90;;;;;;5091446;28;20524;-48
2022/12/03 07:26:55;;;;;;;9.13;7.70;;;2.60;99.90;;;;;;5091221;28;20440;-47
2022/12/03 07:29:22;;;;;;;11.80;9.00;;;2.70;99.90;;;;;;5091167;28;20446;-47
2022/12/03 07:31:49;;;;;;;14.17;9.03;;;2.70;99.90;;;;;;5090823;28;20554;-48
2022/12/03 07:34:16;;;;;;;11.40;8.77;;;2.80;99.90;;;;;;5091471;28;20472;-47
2022/12/03 07:36:43;;;;;;;12.40;8.33;;;2.70;99.90;;;;;;5089520;28;20448;-47
2022/12/03 07:39:10;;;;;;;13.07;9.70;;;2.70;99.90;;;;;;5091345;28;20883;-48
2022/12/03 07:41:37;;;;;;;12.67;9.90;;;2.70;99.90;;;;;;5091417;28;20551;-47
2022/12/03 07:44:05;;;;;;;10.37;9.00;;;2.80;99.90;;;;;;5091256;28;20436;-47
2022/12/03 07:46:32;;;;;;;12.30;9.10;;;2.80;99.90;;;;;;5091479;28;20658;-50
2022/12/03 07:48:59;;;;;;;12.57;8.37;;;2.70;99.90;;;;;;5087425;28;20527;-49
2022/12/03 07:51:26;;;;;;;10.50;7.70;;;2.70;99.90;;;;;;5091241;28;20473;-47
2022/12/03 07:53:52;;;;;;;10.03;8.30;;;2.80;99.90;;;;;;5091237;28;20478;-48
2022/12/03 07:56:19;;;;;;;11.80;8.60;;;2.90;99.90;;;;;;5092053;28;20446;-47
2022/12/03 07:58:46;;;;;;;11.87;9.37;;;2.80;99.90;;;;;;5091734;28;20447;-47
2022/12/03 08:01:14;;;;;;;13.60;9.73;;;2.80;99.90;;;;;;5091544;28;20464;-48
2022/12/03 08:03:42;;;;;;;9.93;7.80;;;2.80;99.90;;;;;;5091383;28;20436;-49
2022/12/03 08:06:09;;;;;;;19.10;13.73;;;2.80;99.90;;;;;;5091511;28;20445;-47
2022/12/03 08:08:36;;;;;;;15.03;12.00;;;2.80;99.90;;;;;;5090991;28;20539;-47
2022/12/03 08:11:03;;;;;;;18.33;13.20;;;2.60;99.90;;;;;;5091224;28;20909;-47
2022/12/03 08:13:30;;;;;;;18.10;12.37;;;2.50;99.90;;;;;;5080480;28;20468;-49
2022/12/03 08:16:01;;;;;;;12.00;10.33;;;2.70;99.90;;;;;;5082821;28;20535;-47
2022/12/03 08:18:29;;;;;;;14.30;9.60;;;2.60;99.90;;;;;;5086843;28;20529;-47
2022/12/03 08:20:56;;;;;;;16.10;10.30;;;2.50;99.90;;;;;;5085665;28;20456;-47
2022/12/03 08:23:24;;;;;;;13.23;9.90;;;2.30;99.90;;;;;;5079049;28;20812;-46
2022/12/03 08:25:52;;;;;;;12.23;9.90;;;2.30;99.90;;;;;;5081024;28;20447;-48
2022/12/03 08:28:20;;;;;;;12.60;9.90;;;2.00;99.90;;;;;;5081865;28;20531;-47
2022/12/03 08:30:57;;;;;;;17.30;11.23;;;1.90;99.90;;;;;;5086200;28;20442;-46
2022/12/03 08:33:27;;;;;;;14.63;11.07;;;2.00;99.90;;;;;;5088677;28;20562;-47
2022/12/03 08:35:55;;;;;;;15.80;10.90;;;1.80;99.90;;;;;;5084846;28;20945;-47
2022/12/03 08:38:23;;;;;;;16.07;12.00;;;1.90;99.90;;;;;;5078597;28;20548;-46
2022/12/03 08:40:54;;;;;;;20.03;13.80;;;2.10;99.90;;;;;;5081275;28;20532;-48
2022/12/03 08:43:23;;;;;;;17.57;12.77;;;2.40;99.90;;;;;;5087792;28;20468;-47
2022/12/03 08:45:51;;;;;;;18.03;12.57;;;2.50;99.90;;;;;;5089053;28;20447;-46
2022/12/03 08:48:31;;;;;;;39.43;20.60;;;2.60;99.90;;;;;;5088486;28;20986;-46
2022/12/03 08:51:03;;;;;;;24.10;13.87;;;3.10;99.90;;;;;;5078471;28;20984;-49
2022/12/03 08:53:33;;;;;;;18.47;11.03;;;3.70;99.90;;;;;;5071825;28;20475;-46
2022/12/03 08:56:02;;;;;;;12.80;10.33;;;3.50;99.90;;;;;;5079789;28;20443;-46
2022/12/03 08:58:36;;;;;;;10.80;8.40;;;3.30;99.90;;;;;;5082446;28;20440;-49
2022/12/03 09:01:24;;;;;;;13.17;9.43;;;3.10;99.90;;;;;;5090860;28;20557;-46
2022/12/03 09:03:53;;;;;;;11.40;8.43;;;2.90;99.90;;;;;;5074559;28;20519;-50
2022/12/03 09:06:22;;;;;;;12.13;9.90;;;2.70;99.90;;;;;;5084205;28;20950;-46
2022/12/03 09:08:49;;;;;;;16.57;10.70;;;2.60;99.90;;;;;;5080622;28;20452;-47
2022/12/03 09:11:16;;;;;;;16.23;10.87;;;2.50;99.90;;;;;;5079763;28;20468;-46
2022/12/03 09:13:43;;;;;;;12.73;9.73;;;2.30;99.90;;;;;;5086691;28;20478;-47
2022/12/03 09:16:10;;;;;;;15.00;9.80;;;2.40;99.90;;;;;;5074407;28;20443;-49
2022/12/03 09:18:36;;;;;;;13.43;9.60;;;2.30;99.90;;;;;;5084699;28;20895;-47
2022/12/03 09:21:03;;;;;;;12.57;9.90;;;2.50;99.90;;;;;;5082871;28;20467;-49
2022/12/03 09:23:32;;;;;;;11.27;8.67;;;2.60;99.90;;;;;;5081681;28;20436;-47
2022/12/03 09:25:59;;;;;;;13.40;8.70;;;2.80;99.90;;;;;;5081719;28;20436;-48
2022/12/03 09:28:26;;;;;;;15.77;9.67;;;2.90;99.90;;;;;;5081833;28;20440;-46
2022/12/03 09:30:52;;;;;;;12.73;9.20;;;2.90;99.90;;;;;;5083396;28;20433;-50
2022/12/03 09:33:19;;;;;;;13.60;9.23;;;3.10;99.90;;;;;;5088449;28;20475;-47
2022/12/03 09:35:46;;;;;;;13.50;8.00;;;3.00;99.90;;;;;;5081774;28;20543;-46
2022/12/03 09:38:13;;;;;;;17.90;10.70;;;2.60;99.90;;;;;;5082655;28;20440;-49
2022/12/03 09:40:41;;;;;;;14.87;9.73;;;2.40;99.90;;;;;;5080168;28;20942;-49
2022/12/03 09:43:08;;;;;;;13.00;10.57;;;2.70;99.90;;;;;;5085184;28;20433;-47
2022/12/03 09:45:36;;;;;;;12.30;8.03;;;2.90;99.90;;;;;;5093661;28;20530;-50
2022/12/03 09:48:04;;;;;;;13.23;9.90;;;3.00;99.90;;;;;;5085796;28;20443;-47
2022/12/03 09:50:32;;;;;;;15.80;10.37;;;2.90;99.90;;;;;;5081237;28;20432;-47
2022/12/03 09:53:02;;;;;;;13.27;9.63;;;2.80;99.90;;;;;;5077503;28;20477;-47
2022/12/03 09:55:29;;;;;;;11.37;9.47;;;2.90;99.90;;;;;;5090747;28;20808;-48
2022/12/03 09:57:59;;;;;;;13.17;9.47;;;3.10;99.90;;;;;;5084911;28;20529;-49
2022/12/03 10:00:28;;;;;;;11.47;9.37;;;3.20;99.90;;;;;;5077419;28;20499;-47
2022/12/03 10:02:57;;;;;;;11.03;9.87;;;3.30;99.90;;;;;;5078666;28;20547;-45
2022/12/03 10:05:25;;;;;;;13.10;8.63;;;3.40;99.90;;;;;;5093067;28;20957;-48
2022/12/03 10:07:52;;;;;;;14.00;10.63;;;3.50;99.90;;;;;;5093648;28;20535;-48
2022/12/03 10:10:22;;;;;;;13.23;10.37;;;3.30;99.90;;;;;;5096229;28;20952;-49
2022/12/03 10:12:49;;;;;;;14.23;11.13;;;3.10;99.90;;;;;;5092884;28;20489;-47
2022/12/03 10:15:19;;;;;;;14.93;9.87;;;3.30;99.90;;;;;;5092368;28;20466;-47
2022/12/03 10:17:47;;;;;;;15.20;8.70;;;3.40;99.90;;;;;;5093425;28;20993;-46
2022/12/03 10:20:16;;;;;;;15.87;9.60;;;3.50;99.90;;;;;;5093356;28;20436;-46
2022/12/03 10:22:44;;;;;;;14.10;9.27;;;3.50;99.90;;;;;;5093341;28;20491;-48
2022/12/03 10:25:13;;;;;;;14.70;9.63;;;3.60;99.90;;;;;;5088024;28;20472;-48
2022/12/03 10:27:41;;;;;;;14.03;10.10;;;3.60;99.90;;;;;;5093658;28;20524;-49
2022/12/03 10:30:16;;;;;;;16.30;10.40;;;3.60;99.90;;;;;;5093436;28;20527;-47
2022/12/03 10:32:46;;;;;;;24.27;13.87;;;3.60;99.90;;;;;;5093276;28;20479;-48
2022/12/03 10:35:14;;;;;;;25.80;12.97;;;3.70;99.90;;;;;;5093083;28;20563;-48
2022/12/03 10:38:03;;;;;;;16.20;11.60;;;4.30;99.90;;;;;;5093524;28;20534;-48
2022/12/03 10:40:32;;;;;;;17.03;11.77;;;4.60;99.90;;;;;;5088747;28;20444;-50
2022/12/03 10:43:14;;;;;;;15.80;11.10;;;4.90;99.90;;;;;;5092324;28;20485;-50
2022/12/03 10:45:42;;;;;;;16.67;12.00;;;5.20;99.90;;;;;;5072512;28;21006;-50
2022/12/03 10:48:14;;;;;;;13.23;9.80;;;5.70;99.90;;;;;;5072834;28;20449;-48
2022/12/03 10:50:48;;;;;;;14.40;10.57;;;5.90;99.90;;;;;;5072929;28;20537;-47
2022/12/03 10:53:16;;;;;;;11.00;9.53;;;5.90;99.90;;;;;;5071902;28;20921;-49
2022/12/03 10:55:44;;;;;;;13.60;10.27;;;6.20;99.90;;;;;;5072133;28;20536;-49
2022/12/03 10:58:22;;;;;;;12.40;9.63;;;6.00;99.90;;;;;;5072900;28;20451;-48
2022/12/03 11:00:49;;;;;;;12.20;9.30;;;6.10;99.90;;;;;;5072774;28;20530;-48
2022/12/03 11:03:20;;;;;;;17.17;10.37;;;6.00;99.90;;;;;;5072386;28;20522;-49
2022/12/03 11:05:47;;;;;;;13.47;10.60;;;6.10;99.90;;;;;;5071602;28;20451;-46
2022/12/03 11:08:20;;;;;;;14.90;11.13;;;6.20;99.90;;;;;;5071251;28;20453;-45
2022/12/03 11:10:56;;;;;;;18.77;11.00;;;6.30;99.90;;;;;;5080564;28;20454;-45
2022/12/03 11:13:45;;;;;;;11.37;9.23;;;6.20;99.90;;;;;;5089196;28;20559;-50
2022/12/03 11:16:12;;;;;;;14.43;11.27;;;5.60;99.90;;;;;;5091778;28;20465;-48
2022/12/03 11:19:01;;;;;;;11.70;9.10;;;5.20;99.90;;;;;;5091077;28;20453;-47
2022/12/03 11:21:28;;;;;;;12.90;9.57;;;4.90;99.90;;;;;;5091762;28;20466;-49
2022/12/03 11:24:19;;;;;;;12.33;8.90;;;4.60;99.90;;;;;;5090714;28;20532;-47
2022/12/03 11:27:20;;;;;;;11.00;8.80;;;4.60;99.90;;;;;;5073297;28;20534;-48
2022/12/03 11:30:01;;;;;;;13.93;9.13;;;4.80;99.90;;;;;;5092206;28;20818;-48
2022/12/03 11:33:07;;;;;;;11.63;8.80;;;4.80;99.90;;;;;;5089477;28;20484;-49
2022/12/03 11:36:14;;;;;;;13.27;8.97;;;4.90;99.90;;;;;;5080409;28;20878;-46
2022/12/03 11:38:58;;;;;;;12.77;10.30;;;5.60;99.90;;;;;;5092108;28;20848;-49
2022/12/03 11:41:30;;;;;;;18.50;10.40;;;5.60;99.90;;;;;;5089903;28;20450;-47
2022/12/03 11:44:24;;;;;;;12.30;9.13;;;5.80;99.90;;;;;;5089090;28;21014;-47
2022/12/03 11:46:50;;;;;;;15.13;10.03;;;6.20;99.90;;;;;;5073092;28;20519;-47
2022/12/03 11:49:39;;;;;;;14.30;10.23;;;6.00;99.90;;;;;;5091419;28;20443;-49
2022/12/03 11:52:22;;;;;;;14.20;11.20;;;5.50;99.90;;;;;;5091242;28;20836;-47
2022/12/03 11:54:53;;;;;;;14.77;10.17;;;5.30;99.90;;;;;;5080089;28;20484;-47
2022/12/03 11:57:36;;;;;;;12.77;9.80;;;5.30;99.90;;;;;;5078628;28;20447;-47
2022/12/03 12:00:15;;;;;;;13.23;11.40;;;5.20;99.90;;;;;;5084887;28;20875;-47
2022/12/03 12:02:42;;;;;;;16.80;11.03;;;5.20;99.90;;;;;;5086945;28;20707;-47
2022/12/03 12:05:22;;;;;;;18.23;12.37;;;5.10;99.90;;;;;;5091511;28;20430;-48
2022/12/03 12:07:51;;;;;;;14.30;10.30;;;5.10;99.90;;;;;;5090160;28;20466;-46
2022/12/03 12:10:41;;;;;;;16.97;11.90;;;5.90;99.90;;;;;;5091506;28;20535;-47
2022/12/03 12:13:26;;;;;;;17.90;10.40;;;6.20;99.90;;;;;;5089185;28;20442;-47
2022/12/03 12:15:54;;;;;;;14.97;9.00;;;5.80;99.90;;;;;;5091326;28;20436;-48
2022/12/03 12:18:41;;;;;;;13.53;9.30;;;6.00;99.90;;;;;;5091236;28;20531;-48
2022/12/03 12:21:40;;;;;;;10.67;9.40;;;6.40;99.90;;;;;;5091460;28;20550;-49
2022/12/03 12:24:37;;;;;;;11.47;9.23;;;6.20;99.90;;;;;;5090513;28;20744;-47
2022/12/03 12:27:06;;;;;;;10.83;9.20;;;5.50;99.90;;;;;;5088185;28;20447;-51
2022/12/03 12:29:34;;;;;;;10.30;8.27;;;5.20;99.90;;;;;;5089283;28;20442;-47
2022/12/03 12:32:11;;;;;;;9.47;8.10;;;5.10;99.90;;;;;;5089987;28;20559;-47
2022/12/03 12:34:39;;;;;;;11.97;9.00;;;5.10;99.90;;;;;;5089495;28;20472;-49
2022/12/03 12:37:12;;;;;;;12.10;8.40;;;5.10;99.90;;;;;;5089979;28;20450;-49
2022/12/03 12:39:40;;;;;;;14.33;8.40;;;4.70;99.90;;;;;;5091037;28;20451;-49
2022/12/03 12:42:33;;;;;;;10.70;8.30;;;4.80;99.90;;;;;;5090702;28;20544;-47
2022/12/03 12:45:13;;;;;;;10.37;8.47;;;4.80;99.90;;;;;;5091335;28;20437;-48
2022/12/03 12:47:45;;;;;;;9.90;8.53;;;4.80;99.90;;;;;;5091272;28;20439;-47
2022/12/03 12:50:13;;;;;;;11.60;8.50;;;4.90;99.90;;;;;;5091206;28;20631;-48
2022/12/03 12:52:49;;;;;;;11.50;8.23;;;4.80;99.90;;;;;;5090626;28;20543;-47
2022/12/03 12:55:18;;;;;;;12.33;9.57;;;4.80;99.90;;;;;;5090931;28;20536;-47
2022/12/03 12:57:45;;;;;;;12.43;8.53;;;4.80;99.90;;;;;;5088629;28;20532;-48
2022/12/03 13:00:19;;;;;;;12.67;8.33;;;4.80;99.90;;;;;;5085948;28;20529;-49
2022/12/03 13:02:49;;;;;;;12.30;8.73;;;4.90;99.90;;;;;;5071018;28;20491;-47
2022/12/03 13:05:16;;;;;;;12.73;9.10;;;4.30;99.90;;;;;;5081868;28;20529;-48
2022/12/03 13:07:43;;;;;;;8.50;7.47;;;4.30;99.90;;;;;;5086344;28;20536;-48
2022/12/03 13:10:36;;;;;;;14.37;8.87;;;4.40;99.90;;;;;;5089562;28;20472;-50
2022/12/03 13:13:15;;;;;;;11.20;8.93;;;4.70;99.90;;;;;;5070266;28;20948;-49
2022/12/03 13:15:48;;;;;;;10.37;9.20;;;4.80;99.90;;;;;;5078167;28;20564;-48